sensor_id;sensor_type;location;lat;lon;timestamp;pressure;altitude;pressure_sealevel;temperature;humidity
37304;BME280;23188;51.188;16.374;2022-12-10T00:03:34;99287.61;;;3.56;97.23
37304;BME280;23188;51.188;16.374;2022-12-10T00:07:35;99287.16;;;3.56;97.38
37304;BME280;23188;51.188;16.374;2022-12-10T00:11:37;99282.08;;;3.53;97.22
37304;BME280;23188;51.188;16.374;2022-12-10T00:15:39;99284.92;;;3.50;97.63
37304;BME280;23188;51.188;16.374;2022-12-10T00:19:40;99277.25;;;3.47;97.50
37304;BME280;23188;51.188;16.374;2022-12-10T00:23:41;99278.94;;;3.48;97.83
37304;BME280;23188;51.188;16.374;2022-12-10T00:27:43;99272.48;;;3.47;98.22
37304;BME280;23188;51.188;16.374;2022-12-10T00:31:44;99266.59;;;3.43;98.03
37304;BME280;23188;51.188;16.374;2022-12-10T00:35:45;99268.84;;;3.42;98.15
37304;BME280;23188;51.188;16.374;2022-12-10T00:39:47;99273.01;;;3.39;98.24
37304;BME280;23188;51.188;16.374;2022-12-10T00:43:48;99284.34;;;3.39;98.31
37304;BME280;23188;51.188;16.374;2022-12-10T00:47:49;99283.09;;;3.32;97.96
37304;BME280;23188;51.188;16.374;2022-12-10T00:51:50;99281.29;;;3.33;98.77
37304;BME280;23188;51.188;16.374;2022-12-10T00:55:52;99284.13;;;3.29;98.36
37304;BME280;23188;51.188;16.374;2022-12-10T00:59:54;99289.60;;;3.26;98.45
37304;BME280;23188;51.188;16.374;2022-12-10T01:03:58;99287.77;;;3.21;98.59
37304;BME280;23188;51.188;16.374;2022-12-10T01:08:01;99290.02;;;3.20;98.31
37304;BME280;23188;51.188;16.374;2022-12-10T01:12:03;99288.36;;;3.12;98.94
37304;BME280;23188;51.188;16.374;2022-12-10T01:16:06;99285.58;;;3.08;98.91
37304;BME280;23188;51.188;16.374;2022-12-10T01:20:09;99284.84;;;3.06;99.48
37304;BME280;23188;51.188;16.374;2022-12-10T01:24:11;99286.73;;;3.04;99.97
37304;BME280;23188;51.188;16.374;2022-12-10T01:28:12;99290.67;;;3.04;99.85
37304;BME280;23188;51.188;16.374;2022-12-10T01:32:13;99287.89;;;2.99;99.93
37304;BME280;23188;51.188;16.374;2022-12-10T01:36:24;99295.61;;;2.95;100.00
37304;BME280;23188;51.188;16.374;2022-12-10T01:40:24;99298.19;;;3.03;100.00
37304;BME280;23188;51.188;16.374;2022-12-10T01:48:32;99306.12;;;2.95;99.99
37304;BME280;23188;51.188;16.374;2022-12-10T01:52:34;99305.55;;;2.97;100.00
37304;BME280;23188;51.188;16.374;2022-12-10T01:56:38;99307.59;;;2.99;100.00
37304;BME280;23188;51.188;16.374;2022-12-10T02:00:50;99308.91;;;2.99;99.94
37304;BME280;23188;51.188;16.374;2022-12-10T02:14:15;99289.66;;;2.99;100.00
37304;BME280;23188;51.188;16.374;2022-12-10T02:18:38;99288.55;;;2.96;99.92
37304;BME280;23188;51.188;16.374;2022-12-10T02:22:45;99293.89;;;2.94;99.67
37304;BME280;23188;51.188;16.374;2022-12-10T02:31:31;99299.13;;;3.02;99.65
37304;BME280;23188;51.188;16.374;2022-12-10T02:35:35;99301.39;;;3.00;99.10
37304;BME280;23188;51.188;16.374;2022-12-10T02:39:42;99302.13;;;3.03;98.82
37304;BME280;23188;51.188;16.374;2022-12-10T02:43:46;99305.21;;;3.02;99.01
37304;BME280;23188;51.188;16.374;2022-12-10T02:47:52;99304.92;;;3.07;98.94
37304;BME280;23188;51.188;16.374;2022-12-10T02:51:55;99305.66;;;3.09;98.55
37304;BME280;23188;51.188;16.374;2022-12-10T02:56:17;99312.50;;;3.11;98.36
37304;BME280;23188;51.188;16.374;2022-12-10T03:00:23;99312.20;;;3.16;97.92
37304;BME280;23188;51.188;16.374;2022-12-10T03:13:07;99309.03;;;3.24;96.96
37304;BME280;23188;51.188;16.374;2022-12-10T03:17:12;99318.23;;;3.24;97.00
37304;BME280;23188;51.188;16.374;2022-12-10T03:21:15;99311.48;;;3.27;97.91
37304;BME280;23188;51.188;16.374;2022-12-10T03:25:21;99312.31;;;3.27;97.91
37304;BME280;23188;51.188;16.374;2022-12-10T03:29:31;99316.25;;;3.27;97.88
37304;BME280;23188;51.188;16.374;2022-12-10T03:33:36;99315.30;;;3.28;97.42
37304;BME280;23188;51.188;16.374;2022-12-10T03:37:37;99322.00;;;3.27;97.63
37304;BME280;23188;51.188;16.374;2022-12-10T03:41:39;99322.09;;;3.25;98.14
37304;BME280;23188;51.188;16.374;2022-12-10T03:45:41;99313.47;;;3.23;97.81
37304;BME280;23188;51.188;16.374;2022-12-10T03:49:42;99321.27;;;3.25;97.70
37304;BME280;23188;51.188;16.374;2022-12-10T03:53:44;99322.25;;;3.29;97.95
37304;BME280;23188;51.188;16.374;2022-12-10T03:57:45;99322.03;;;3.33;97.46
37304;BME280;23188;51.188;16.374;2022-12-10T04:01:47;99321.16;;;3.39;97.12
37304;BME280;23188;51.188;16.374;2022-12-10T04:05:48;99321.00;;;3.35;96.74
37304;BME280;23188;51.188;16.374;2022-12-10T04:09:49;99324.73;;;3.38;96.35
37304;BME280;23188;51.188;16.374;2022-12-10T04:13:50;99331.09;;;3.41;96.05
37304;BME280;23188;51.188;16.374;2022-12-10T04:18:10;99338.47;;;3.49;96.04
37304;BME280;23188;51.188;16.374;2022-12-10T04:22:11;99334.12;;;3.55;95.84
37304;BME280;23188;51.188;16.374;2022-12-10T04:26:31;99335.25;;;3.51;95.46
37304;BME280;23188;51.188;16.374;2022-12-10T04:30:50;99333.76;;;3.54;95.37
37304;BME280;23188;51.188;16.374;2022-12-10T04:34:52;99338.80;;;3.57;95.71
37304;BME280;23188;51.188;16.374;2022-12-10T04:38:53;99335.69;;;3.58;95.61
37304;BME280;23188;51.188;16.374;2022-12-10T04:42:54;99345.47;;;3.56;95.94
37304;BME280;23188;51.188;16.374;2022-12-10T04:46:56;99337.86;;;3.59;95.75
37304;BME280;23188;51.188;16.374;2022-12-10T04:50:57;99331.50;;;3.55;95.26
37304;BME280;23188;51.188;16.374;2022-12-10T04:54:59;99337.86;;;3.59;95.34
37304;BME280;23188;51.188;16.374;2022-12-10T04:59:00;99332.32;;;3.56;95.41
37304;BME280;23188;51.188;16.374;2022-12-10T05:03:02;99340.27;;;3.49;95.47
37304;BME280;23188;51.188;16.374;2022-12-10T05:07:03;99342.69;;;3.52;95.28
37304;BME280;23188;51.188;16.374;2022-12-10T05:11:08;99341.06;;;3.56;95.15
37304;BME280;23188;51.188;16.374;2022-12-10T05:15:10;99346.91;;;3.54;95.23
37304;BME280;23188;51.188;16.374;2022-12-10T05:19:12;99353.52;;;3.60;95.20
37304;BME280;23188;51.188;16.374;2022-12-10T05:23:13;99359.78;;;3.65;95.48
37304;BME280;23188;51.188;16.374;2022-12-10T05:27:32;99366.52;;;3.69;94.90
37304;BME280;23188;51.188;16.374;2022-12-10T05:31:34;99366.27;;;3.66;94.65
37304;BME280;23188;51.188;16.374;2022-12-10T05:35:35;99361.84;;;3.67;94.75
37304;BME280;23188;51.188;16.374;2022-12-10T05:39:36;99366.94;;;3.63;94.83
37304;BME280;23188;51.188;16.374;2022-12-10T05:43:38;99364.67;;;3.64;94.71
37304;BME280;23188;51.188;16.374;2022-12-10T05:47:39;99360.21;;;3.59;94.91
37304;BME280;23188;51.188;16.374;2022-12-10T05:51:40;99360.81;;;3.49;95.52
37304;BME280;23188;51.188;16.374;2022-12-10T05:55:41;99357.38;;;3.41;96.15
37304;BME280;23188;51.188;16.374;2022-12-10T05:59:42;99352.91;;;3.36;96.46
37304;BME280;23188;51.188;16.374;2022-12-10T06:03:44;99346.39;;;3.29;97.20
37304;BME280;23188;51.188;16.374;2022-12-10T06:07:45;99346.32;;;3.23;97.63
37304;BME280;23188;51.188;16.374;2022-12-10T06:11:47;99348.58;;;3.22;98.05
37304;BME280;23188;51.188;16.374;2022-12-10T06:15:48;99347.47;;;3.19;98.31
37304;BME280;23188;51.188;16.374;2022-12-10T06:19:49;99344.36;;;3.20;98.78
37304;BME280;23188;51.188;16.374;2022-12-10T06:23:51;99348.42;;;3.18;98.64
37304;BME280;23188;51.188;16.374;2022-12-10T06:27:53;99357.41;;;3.21;98.66
37304;BME280;23188;51.188;16.374;2022-12-10T06:31:54;99361.93;;;3.19;98.02
37304;BME280;23188;51.188;16.374;2022-12-10T06:35:55;99368.87;;;3.20;97.96
37304;BME280;23188;51.188;16.374;2022-12-10T06:39:57;99379.17;;;3.23;97.68
37304;BME280;23188;51.188;16.374;2022-12-10T06:43:58;99375.97;;;3.25;97.14
37304;BME280;23188;51.188;16.374;2022-12-10T06:47:59;99374.66;;;3.25;96.54
37304;BME280;23188;51.188;16.374;2022-12-10T06:52:00;99378.44;;;3.21;95.69
37304;BME280;23188;51.188;16.374;2022-12-10T06:56:02;99376.27;;;3.21;96.01
37304;BME280;23188;51.188;16.374;2022-12-10T07:00:05;99376.02;;;3.18;94.99
37304;BME280;23188;51.188;16.374;2022-12-10T07:04:08;99385.59;;;3.19;94.40
37304;BME280;23188;51.188;16.374;2022-12-10T07:08:13;99385.42;;;3.15;94.19
37304;BME280;23188;51.188;16.374;2022-12-10T07:12:15;99384.56;;;3.14;94.67
37304;BME280;23188;51.188;16.374;2022-12-10T07:16:19;99385.59;;;3.12;93.42
37304;BME280;23188;51.188;16.374;2022-12-10T07:20:24;99384.28;;;3.12;93.64
37304;BME280;23188;51.188;16.374;2022-12-10T07:24:25;99394.80;;;3.12;93.36
37304;BME280;23188;51.188;16.374;2022-12-10T07:28:26;99387.48;;;3.17;93.58
37304;BME280;23188;51.188;16.374;2022-12-10T07:32:27;99394.41;;;3.18;92.90
37304;BME280;23188;51.188;16.374;2022-12-10T07:36:29;99390.47;;;3.18;93.23
37304;BME280;23188;51.188;16.374;2022-12-10T07:40:30;99393.84;;;3.20;92.64
37304;BME280;23188;51.188;16.374;2022-12-10T07:44:32;99387.93;;;3.17;92.17
37304;BME280;23188;51.188;16.374;2022-12-10T07:48:34;99397.87;;;3.19;92.30
37304;BME280;23188;51.188;16.374;2022-12-10T07:52:35;99399.76;;;3.17;91.85
37304;BME280;23188;51.188;16.374;2022-12-10T07:56:37;99401.72;;;3.20;92.09
37304;BME280;23188;51.188;16.374;2022-12-10T08:00:38;99413.55;;;3.20;91.81
37304;BME280;23188;51.188;16.374;2022-12-10T08:04:39;99409.48;;;3.22;91.32
37304;BME280;23188;51.188;16.374;2022-12-10T08:08:41;99413.75;;;3.17;90.54
37304;BME280;23188;51.188;16.374;2022-12-10T08:12:43;99419.84;;;3.18;91.54
37304;BME280;23188;51.188;16.374;2022-12-10T08:16:44;99418.36;;;3.13;91.18
37304;BME280;23188;51.188;16.374;2022-12-10T08:20:46;99412.90;;;3.17;91.45
37304;BME280;23188;51.188;16.374;2022-12-10T08:24:47;99417.00;;;3.21;91.15
37304;BME280;23188;51.188;16.374;2022-12-10T08:28:49;99417.70;;;3.17;90.76
37304;BME280;23188;51.188;16.374;2022-12-10T08:32:50;99413.39;;;3.16;90.74
37304;BME280;23188;51.188;16.374;2022-12-10T08:36:51;99418.44;;;3.19;91.32
37304;BME280;23188;51.188;16.374;2022-12-10T08:40:53;99414.58;;;3.18;90.54
37304;BME280;23188;51.188;16.374;2022-12-10T08:44:54;99413.39;;;3.16;90.68
37304;BME280;23188;51.188;16.374;2022-12-10T08:48:55;99414.22;;;3.17;90.25
37304;BME280;23188;51.188;16.374;2022-12-10T08:52:57;99415.81;;;3.12;90.37
37304;BME280;23188;51.188;16.374;2022-12-10T08:56:58;99422.96;;;3.10;90.60
37304;BME280;23188;51.188;16.374;2022-12-10T09:00:59;99422.39;;;3.12;91.14
37304;BME280;23188;51.188;16.374;2022-12-10T09:05:02;99431.01;;;3.14;90.78
37304;BME280;23188;51.188;16.374;2022-12-10T09:09:04;99433.09;;;3.16;90.89
37304;BME280;23188;51.188;16.374;2022-12-10T09:13:05;99430.63;;;3.20;90.90
37304;BME280;23188;51.188;16.374;2022-12-10T09:17:07;99441.69;;;3.25;90.81
37304;BME280;23188;51.188;16.374;2022-12-10T09:21:11;99442.17;;;3.25;90.62
37304;BME280;23188;51.188;16.374;2022-12-10T09:25:17;99442.59;;;3.32;91.10
37304;BME280;23188;51.188;16.374;2022-12-10T09:29:21;99446.36;;;3.35;90.21
37304;BME280;23188;51.188;16.374;2022-12-10T09:33:22;99448.20;;;3.40;90.53
37304;BME280;23188;51.188;16.374;2022-12-10T09:37:30;99443.31;;;3.41;90.43
37304;BME280;23188;51.188;16.374;2022-12-10T09:41:36;99437.48;;;3.43;90.06
37304;BME280;23188;51.188;16.374;2022-12-10T09:50:16;99442.25;;;3.43;89.54
37304;BME280;23188;51.188;16.374;2022-12-10T09:54:38;99438.96;;;3.47;89.65
37304;BME280;23188;51.188;16.374;2022-12-10T09:58:42;99421.80;;;3.41;89.26
37304;BME280;23188;51.188;16.374;2022-12-10T10:02:43;99431.86;;;3.42;89.11
37304;BME280;23188;51.188;16.374;2022-12-10T10:06:45;99420.60;;;3.40;89.39
37304;BME280;23188;51.188;16.374;2022-12-10T10:10:46;99417.19;;;3.45;89.94
37304;BME280;23188;51.188;16.374;2022-12-10T10:14:48;99404.62;;;3.43;89.21
37304;BME280;23188;51.188;16.374;2022-12-10T10:18:56;99403.88;;;3.41;89.53
37304;BME280;23188;51.188;16.374;2022-12-10T10:23:02;99400.30;;;3.42;89.69
37304;BME280;23188;51.188;16.374;2022-12-10T10:27:16;99410.09;;;3.40;89.64
37304;BME280;23188;51.188;16.374;2022-12-10T10:31:25;99396.94;;;3.40;89.80
37304;BME280;23188;51.188;16.374;2022-12-10T10:35:32;99403.07;;;3.33;90.08
37304;BME280;23188;51.188;16.374;2022-12-10T10:39:38;99399.58;;;3.33;89.79
37304;BME280;23188;51.188;16.374;2022-12-10T10:43:41;99399.91;;;3.28;89.36
37304;BME280;23188;51.188;16.374;2022-12-10T10:47:49;99393.63;;;3.23;90.56
37304;BME280;23188;51.188;16.374;2022-12-10T10:52:06;99394.41;;;3.18;89.79
37304;BME280;23188;51.188;16.374;2022-12-10T10:56:27;99403.20;;;3.24;90.12
37304;BME280;23188;51.188;16.374;2022-12-10T11:00:27;99401.02;;;3.31;90.71
37304;BME280;23188;51.188;16.374;2022-12-10T11:04:31;99393.02;;;3.33;89.80
37304;BME280;23188;51.188;16.374;2022-12-10T11:08:38;99399.22;;;3.32;90.56
37304;BME280;23188;51.188;16.374;2022-12-10T11:12:44;99402.49;;;3.35;90.44
37304;BME280;23188;51.188;16.374;2022-12-10T11:16:48;99405.41;;;3.38;90.25
37304;BME280;23188;51.188;16.374;2022-12-10T11:21:04;99396.08;;;3.39;89.73
37304;BME280;23188;51.188;16.374;2022-12-10T11:25:10;99389.63;;;3.38;89.41
37304;BME280;23188;51.188;16.374;2022-12-10T11:38:27;99395.36;;;3.17;91.26
37304;BME280;23188;51.188;16.374;2022-12-10T11:51:42;99396.84;;;3.14;90.93
37304;BME280;23188;51.188;16.374;2022-12-10T12:00:20;99409.73;;;3.11;90.84
37304;BME280;23188;51.188;16.374;2022-12-10T12:17:30;99413.77;;;3.10;91.71
37304;BME280;23188;51.188;16.374;2022-12-10T12:21:33;99407.52;;;3.05;91.59
37304;BME280;23188;51.188;16.374;2022-12-10T12:25:38;99406.48;;;3.00;91.85
37304;BME280;23188;51.188;16.374;2022-12-10T12:29:53;99404.44;;;2.98;92.40
37304;BME280;23188;51.188;16.374;2022-12-10T12:34:25;99406.61;;;2.92;92.96
37304;BME280;23188;51.188;16.374;2022-12-10T12:38:48;99412.44;;;2.90;93.77
37304;BME280;23188;51.188;16.374;2022-12-10T12:47:18;99404.44;;;2.91;94.52
37304;BME280;23188;51.188;16.374;2022-12-10T12:51:32;99400.53;;;2.84;94.59
37304;BME280;23188;51.188;16.374;2022-12-10T13:00:18;99407.13;;;2.77;95.23
37304;BME280;23188;51.188;16.374;2022-12-10T13:04:22;99405.61;;;2.73;94.67
37304;BME280;23188;51.188;16.374;2022-12-10T13:08:28;99401.50;;;2.68;95.72
37304;BME280;23188;51.188;16.374;2022-12-10T13:12:32;99400.47;;;2.64;96.19
37304;BME280;23188;51.188;16.374;2022-12-10T13:16:59;99392.22;;;2.63;95.81
37304;BME280;23188;51.188;16.374;2022-12-10T13:21:31;99395.13;;;2.65;96.15
37304;BME280;23188;51.188;16.374;2022-12-10T13:25:41;99390.08;;;2.62;95.95
37304;BME280;23188;51.188;16.374;2022-12-10T13:34:34;99394.67;;;2.59;96.18
37304;BME280;23188;51.188;16.374;2022-12-10T13:38:54;99398.98;;;2.60;96.74
37304;BME280;23188;51.188;16.374;2022-12-10T13:42:55;99396.83;;;2.52;96.67
37304;BME280;23188;51.188;16.374;2022-12-10T13:47:31;99404.25;;;2.52;97.12
37304;BME280;23188;51.188;16.374;2022-12-10T13:51:52;99397.52;;;2.48;97.14
37304;BME280;23188;51.188;16.374;2022-12-10T13:56:15;99408.39;;;2.49;97.12
37304;BME280;23188;51.188;16.374;2022-12-10T14:00:19;99422.52;;;2.54;96.64
37304;BME280;23188;51.188;16.374;2022-12-10T14:13:40;99437.69;;;2.70;96.50
37304;BME280;23188;51.188;16.374;2022-12-10T14:17:44;99429.34;;;2.78;96.19
37304;BME280;23188;51.188;16.374;2022-12-10T14:21:47;99429.34;;;2.78;95.55
37304;BME280;23188;51.188;16.374;2022-12-10T14:25:48;99430.37;;;2.83;95.69
37304;BME280;23188;51.188;16.374;2022-12-10T14:30:00;99433.56;;;2.81;94.95
37304;BME280;23188;51.188;16.374;2022-12-10T14:34:06;99439.73;;;2.87;94.79
37304;BME280;23188;51.188;16.374;2022-12-10T14:38:16;99437.48;;;2.88;94.85
37304;BME280;23188;51.188;16.374;2022-12-10T14:42:16;99440.39;;;2.91;94.85
37304;BME280;23188;51.188;16.374;2022-12-10T14:46:22;99440.59;;;2.88;94.14
37304;BME280;23188;51.188;16.374;2022-12-10T14:50:28;99458.66;;;2.92;94.67
37304;BME280;23188;51.188;16.374;2022-12-10T14:54:34;99455.87;;;2.95;94.16
37304;BME280;23188;51.188;16.374;2022-12-10T14:58:39;99451.98;;;3.01;94.24
37304;BME280;23188;51.188;16.374;2022-12-10T15:02:45;99454.61;;;3.01;94.33
37304;BME280;23188;51.188;16.374;2022-12-10T15:07:02;99459.78;;;3.03;93.77
37304;BME280;23188;51.188;16.374;2022-12-10T15:11:04;99465.32;;;3.05;93.70
37304;BME280;23188;51.188;16.374;2022-12-10T15:15:10;99471.20;;;3.09;94.19
37304;BME280;23188;51.188;16.374;2022-12-10T15:19:21;99471.75;;;3.14;94.07
37304;BME280;23188;51.188;16.374;2022-12-10T15:27:34;99475.31;;;3.20;93.45
37304;BME280;23188;51.188;16.374;2022-12-10T15:31:35;99479.06;;;3.23;92.81
37304;BME280;23188;51.188;16.374;2022-12-10T15:35:37;99467.43;;;3.20;93.32
37304;BME280;23188;51.188;16.374;2022-12-10T15:44:19;99465.58;;;3.15;93.17
37304;BME280;23188;51.188;16.374;2022-12-10T15:48:20;99475.77;;;3.20;93.51
37304;BME280;23188;51.188;16.374;2022-12-10T15:52:28;99473.43;;;3.22;93.29
37304;BME280;23188;51.188;16.374;2022-12-10T15:56:28;99476.80;;;3.24;93.25
37304;BME280;23188;51.188;16.374;2022-12-10T16:00:30;99478.66;;;3.29;93.52
37304;BME280;23188;51.188;16.374;2022-12-10T16:04:31;99486.53;;;3.37;93.43
37304;BME280;23188;51.188;16.374;2022-12-10T16:08:33;99483.50;;;3.43;92.78
37304;BME280;23188;51.188;16.374;2022-12-10T16:12:36;99485.18;;;3.44;92.94
37304;BME280;23188;51.188;16.374;2022-12-10T16:16:39;99487.53;;;3.41;92.37
37304;BME280;23188;51.188;16.374;2022-12-10T16:20:42;99483.78;;;3.38;92.44
37304;BME280;23188;51.188;16.374;2022-12-10T16:24:43;99482.76;;;3.41;92.97
37304;BME280;23188;51.188;16.374;2022-12-10T16:28:45;99484.07;;;3.41;93.29
37304;BME280;23188;51.188;16.374;2022-12-10T16:32:48;99481.16;;;3.38;93.41
37304;BME280;23188;51.188;16.374;2022-12-10T16:36:49;99478.45;;;3.40;93.30
37304;BME280;23188;51.188;16.374;2022-12-10T16:40:51;99477.33;;;3.37;93.45
37304;BME280;23188;51.188;16.374;2022-12-10T16:44:52;99477.70;;;3.31;93.38
37304;BME280;23188;51.188;16.374;2022-12-10T16:48:53;99474.74;;;3.22;93.50
37304;BME280;23188;51.188;16.374;2022-12-10T16:52:55;99456.92;;;3.13;94.04
37304;BME280;23188;51.188;16.374;2022-12-10T16:56:57;99461.23;;;3.14;94.40
37304;BME280;23188;51.188;16.374;2022-12-10T17:00:58;99457.12;;;3.10;94.25
37304;BME280;23188;51.188;16.374;2022-12-10T17:05:01;99459.95;;;3.07;94.87
37304;BME280;23188;51.188;16.374;2022-12-10T17:09:03;99472.72;;;3.06;95.21
37304;BME280;23188;51.188;16.374;2022-12-10T17:13:05;99468.86;;;3.04;95.21
37304;BME280;23188;51.188;16.374;2022-12-10T17:17:07;99474.12;;;3.04;94.65
37304;BME280;23188;51.188;16.374;2022-12-10T17:21:09;99480.80;;;3.03;94.79
37304;BME280;23188;51.188;16.374;2022-12-10T17:25:11;99484.00;;;3.00;95.17
37304;BME280;23188;51.188;16.374;2022-12-10T17:29:31;99478.58;;;2.96;94.96
37304;BME280;23188;51.188;16.374;2022-12-10T17:33:34;99487.77;;;2.96;95.05
37304;BME280;23188;51.188;16.374;2022-12-10T17:37:36;99486.08;;;2.95;95.10
37304;BME280;23188;51.188;16.374;2022-12-10T17:41:38;99493.77;;;2.98;95.24
37304;BME280;23188;51.188;16.374;2022-12-10T17:45:40;99493.84;;;2.97;95.20
37304;BME280;23188;51.188;16.374;2022-12-10T17:49:42;99499.39;;;2.99;95.47
37304;BME280;23188;51.188;16.374;2022-12-10T17:53:43;99492.25;;;2.94;95.38
37304;BME280;23188;51.188;16.374;2022-12-10T17:57:44;99501.84;;;2.95;95.92
37304;BME280;23188;51.188;16.374;2022-12-10T18:01:46;99497.13;;;2.93;96.03
37304;BME280;23188;51.188;16.374;2022-12-10T18:05:47;99495.02;;;2.85;96.13
37304;BME280;23188;51.188;16.374;2022-12-10T18:09:49;99494.92;;;2.80;96.59
37304;BME280;23188;51.188;16.374;2022-12-10T18:13:50;99498.48;;;2.79;96.78
37304;BME280;23188;51.188;16.374;2022-12-10T18:17:52;99496.31;;;2.78;96.98
37304;BME280;23188;51.188;16.374;2022-12-10T18:21:53;99502.88;;;2.78;96.56
37304;BME280;23188;51.188;16.374;2022-12-10T18:25:55;99494.06;;;2.79;96.71
37304;BME280;23188;51.188;16.374;2022-12-10T18:29:56;99500.45;;;2.75;96.83
37304;BME280;23188;51.188;16.374;2022-12-10T18:34:01;99502.99;;;2.77;96.50
37304;BME280;23188;51.188;16.374;2022-12-10T18:38:11;99507.30;;;2.78;95.96
37304;BME280;23188;51.188;16.374;2022-12-10T18:42:15;99502.60;;;2.83;96.42
37304;BME280;23188;51.188;16.374;2022-12-10T18:46:26;99499.05;;;2.77;96.35
37304;BME280;23188;51.188;16.374;2022-12-10T18:50:29;99493.80;;;2.77;96.58
37304;BME280;23188;51.188;16.374;2022-12-10T18:54:31;99494.34;;;2.75;97.01
37304;BME280;23188;51.188;16.374;2022-12-10T18:58:32;99487.31;;;2.75;97.11
37304;BME280;23188;51.188;16.374;2022-12-10T19:02:33;99494.55;;;2.79;97.65
37304;BME280;23188;51.188;16.374;2022-12-10T19:06:35;99491.44;;;2.79;97.23
37304;BME280;23188;51.188;16.374;2022-12-10T19:10:38;99492.38;;;2.78;97.47
37304;BME280;23188;51.188;16.374;2022-12-10T19:14:39;99486.47;;;2.82;97.50
37304;BME280;23188;51.188;16.374;2022-12-10T19:18:40;99500.55;;;2.81;97.28
37304;BME280;23188;51.188;16.374;2022-12-10T19:22:43;99499.98;;;2.83;97.45
37304;BME280;23188;51.188;16.374;2022-12-10T19:26:45;99501.11;;;2.79;97.82
37304;BME280;23188;51.188;16.374;2022-12-10T19:30:48;99502.99;;;2.77;97.64
37304;BME280;23188;51.188;16.374;2022-12-10T19:34:50;99496.70;;;2.72;97.72
37304;BME280;23188;51.188;16.374;2022-12-10T19:38:52;99492.39;;;2.71;98.17
37304;BME280;23188;51.188;16.374;2022-12-10T19:42:55;99483.11;;;2.65;98.26
37304;BME280;23188;51.188;16.374;2022-12-10T19:46:56;99477.67;;;2.61;98.98
37304;BME280;23188;51.188;16.374;2022-12-10T19:50:58;99469.89;;;2.52;99.11
37304;BME280;23188;51.188;16.374;2022-12-10T19:54:59;99475.89;;;2.54;99.23
37304;BME280;23188;51.188;16.374;2022-12-10T19:59:13;99479.75;;;2.56;98.96
37304;BME280;23188;51.188;16.374;2022-12-10T20:03:18;99477.48;;;2.50;99.07
37304;BME280;23188;51.188;16.374;2022-12-10T20:07:20;99474.10;;;2.48;99.04
37304;BME280;23188;51.188;16.374;2022-12-10T20:11:21;99486.21;;;2.50;99.09
37304;BME280;23188;51.188;16.374;2022-12-10T20:15:24;99491.17;;;2.48;99.35
37304;BME280;23188;51.188;16.374;2022-12-10T20:19:26;99503.17;;;2.45;99.59
37304;BME280;23188;51.188;16.374;2022-12-10T20:23:27;99505.23;;;2.47;99.59
37304;BME280;23188;51.188;16.374;2022-12-10T20:27:29;99500.09;;;2.52;99.59
37304;BME280;23188;51.188;16.374;2022-12-10T20:31:30;99497.17;;;2.50;99.49
37304;BME280;23188;51.188;16.374;2022-12-10T20:35:33;99501.59;;;2.49;99.42
37304;BME280;23188;51.188;16.374;2022-12-10T20:39:34;99507.30;;;2.49;99.09
37304;BME280;23188;51.188;16.374;2022-12-10T20:43:39;99509.36;;;2.43;99.14
37304;BME280;23188;51.188;16.374;2022-12-10T20:47:41;99511.43;;;2.38;98.91
37304;BME280;23188;51.188;16.374;2022-12-10T20:51:43;99515.93;;;2.36;99.46
37304;BME280;23188;51.188;16.374;2022-12-10T20:55:47;99501.66;;;2.33;99.66
37304;BME280;23188;51.188;16.374;2022-12-10T20:59:49;99497.83;;;2.32;99.80
37304;BME280;23188;51.188;16.374;2022-12-10T21:03:50;99498.09;;;2.27;99.97
37304;BME280;23188;51.188;16.374;2022-12-10T21:07:52;99502.03;;;2.27;100.00
37304;BME280;23188;51.188;16.374;2022-12-10T21:11:55;99500.91;;;2.24;99.71
37304;BME280;23188;51.188;16.374;2022-12-10T21:24:15;99504.92;;;2.15;100.00
37304;BME280;23188;51.188;16.374;2022-12-10T21:28:22;99511.94;;;2.14;99.72
37304;BME280;23188;51.188;16.374;2022-12-10T21:36:41;99514.56;;;2.14;99.63
37304;BME280;23188;51.188;16.374;2022-12-10T21:40:53;99512.02;;;2.06;98.94
37304;BME280;23188;51.188;16.374;2022-12-10T21:44:55;99509.31;;;2.07;99.72
37304;BME280;23188;51.188;16.374;2022-12-10T21:48:56;99515.19;;;2.04;99.57
37304;BME280;23188;51.188;16.374;2022-12-10T21:52:58;99516.13;;;2.03;99.80
37304;BME280;23188;51.188;16.374;2022-12-10T22:01:14;99523.13;;;1.95;99.14
37304;BME280;23188;51.188;16.374;2022-12-10T22:05:32;99521.73;;;1.89;98.86
37304;BME280;23188;51.188;16.374;2022-12-10T22:09:34;99509.87;;;1.98;99.25
37304;BME280;23188;51.188;16.374;2022-12-10T22:13:35;99518.00;;;2.00;99.04
37304;BME280;23188;51.188;16.374;2022-12-10T22:17:37;99518.11;;;2.06;99.70
37304;BME280;23188;51.188;16.374;2022-12-10T22:21:38;99521.19;;;2.06;98.98
37304;BME280;23188;51.188;16.374;2022-12-10T22:25:41;99502.11;;;2.11;99.14
37304;BME280;23188;51.188;16.374;2022-12-10T22:29:43;99509.98;;;2.11;99.20
37304;BME280;23188;51.188;16.374;2022-12-10T22:33:44;99500.69;;;2.12;98.98
37304;BME280;23188;51.188;16.374;2022-12-10T22:37:50;99499.48;;;2.11;98.27
37304;BME280;23188;51.188;16.374;2022-12-10T22:41:51;99504.63;;;2.05;98.25
37304;BME280;23188;51.188;16.374;2022-12-10T22:45:53;99504.33;;;2.03;98.25
37304;BME280;23188;51.188;16.374;2022-12-10T22:49:56;99505.07;;;1.97;98.42
37304;BME280;23188;51.188;16.374;2022-12-10T22:54:00;99507.77;;;1.96;98.15
37304;BME280;23188;51.188;16.374;2022-12-10T23:02:15;99502.62;;;1.87;97.42
37304;BME280;23188;51.188;16.374;2022-12-10T23:06:18;99499.02;;;1.81;97.31
37304;BME280;23188;51.188;16.374;2022-12-10T23:10:20;99508.57;;;1.75;98.04
37304;BME280;23188;51.188;16.374;2022-12-10T23:14:37;99506.39;;;1.67;98.12
37304;BME280;23188;51.188;16.374;2022-12-10T23:18:38;99500.95;;;1.63;98.32
37304;BME280;23188;51.188;16.374;2022-12-10T23:22:40;99509.87;;;1.67;98.22
37304;BME280;23188;51.188;16.374;2022-12-10T23:26:41;99502.33;;;1.61;98.02
37304;BME280;23188;51.188;16.374;2022-12-10T23:30:43;99500.19;;;1.61;97.72
37304;BME280;23188;51.188;16.374;2022-12-10T23:34:45;99497.20;;;1.60;98.26